createdAt,value
2022-08-22T00:01:10.887Z,441
2022-08-22T00:02:24.435Z,441
2022-08-22T00:02:55.205Z,432
2022-08-22T00:02:58.171Z,514
2022-08-22T00:03:15.114Z,471
2022-08-22T00:03:29.151Z,441
2022-08-22T00:04:42.165Z,439
2022-08-22T00:05:54.349Z,440
2022-08-22T00:06:57.194Z,440
2022-08-22T00:08:09.454Z,440
2022-08-22T00:09:22.691Z,440
2022-08-22T00:10:25.863Z,439
2022-08-22T00:11:39.207Z,441
2022-08-22T00:12:51.636Z,440
2022-08-22T00:14:04.688Z,437
2022-08-22T00:15:07.125Z,438
2022-08-22T00:16:20.185Z,440
2022-08-22T00:17:32.568Z,438
2022-08-22T00:18:35.663Z,439
2022-08-22T00:19:47.987Z,437
2022-08-22T00:21:01.180Z,438
2022-08-22T00:22:13.553Z,436
2022-08-22T00:23:16.709Z,437
2022-08-22T00:24:29.043Z,437
2022-08-22T00:25:42.166Z,436
2022-08-22T00:26:45.589Z,436
2022-08-22T00:27:59.419Z,437
2022-08-22T00:29:11.892Z,437
2022-08-22T00:30:15.163Z,439
2022-08-22T00:31:27.594Z,438
2022-08-22T00:32:40.691Z,435
2022-08-22T00:33:53.043Z,435
2022-08-22T00:34:56.704Z,436
2022-08-22T00:36:09.097Z,437
2022-08-22T00:37:22.206Z,437
2022-08-22T00:38:26.956Z,440
2022-08-22T00:39:40.273Z,440
2022-08-22T00:40:42.739Z,439
2022-08-22T00:41:56.212Z,440
2022-08-22T00:43:08.560Z,441
2022-08-22T00:44:21.708Z,439
2022-08-22T00:45:24.177Z,439
2022-08-22T00:46:37.197Z,441
2022-08-22T00:47:49.560Z,441
2022-08-22T00:49:02.690Z,442
2022-08-22T00:50:05.217Z,444
2022-08-22T00:51:18.180Z,444
2022-08-22T00:52:30.551Z,443
2022-08-22T00:53:33.687Z,442
2022-08-22T00:54:47.060Z,442
2022-08-22T00:56:00.188Z,443
2022-08-22T00:57:02.705Z,443
2022-08-22T00:58:16.185Z,444
2022-08-22T00:59:28.617Z,447
2022-08-22T01:00:42.226Z,447
2022-08-22T01:01:44.678Z,446
2022-08-22T01:02:58.241Z,446
2022-08-22T01:04:10.698Z,445
2022-08-22T01:05:13.704Z,445
2022-08-22T01:06:26.060Z,445
2022-08-22T01:07:39.232Z,445
2022-08-22T01:08:41.681Z,445
2022-08-22T01:09:54.693Z,446
2022-08-22T01:11:07.159Z,448
2022-08-22T01:12:20.233Z,447
2022-08-22T01:13:22.704Z,449
2022-08-22T01:14:35.732Z,450
2022-08-22T01:15:48.151Z,449
2022-08-22T01:16:51.185Z,449
2022-08-22T01:18:03.724Z,450
2022-08-22T01:19:16.730Z,449
2022-08-22T01:20:29.107Z,449
2022-08-22T01:21:32.318Z,450
2022-08-22T01:22:44.747Z,448
2022-08-22T01:23:58.210Z,450
2022-08-22T01:25:00.668Z,450
2022-08-22T01:26:15.687Z,447
2022-08-22T01:27:21.695Z,449
2022-08-22T01:28:35.724Z,450
2022-08-22T01:29:48.142Z,452
2022-08-22T01:30:51.200Z,454
2022-08-22T01:32:03.572Z,456
2022-08-22T01:33:16.764Z,454
2022-08-22T01:34:29.145Z,452
2022-08-22T01:35:32.305Z,453
2022-08-22T01:36:44.707Z,453
2022-08-22T01:37:57.807Z,453
2022-08-22T01:39:10.283Z,454
2022-08-22T01:40:13.746Z,452
2022-08-22T01:41:26.579Z,452
2022-08-22T01:42:39.714Z,454
2022-08-22T01:43:59.239Z,453
2022-08-22T01:44:54.224Z,453
2022-08-22T01:46:06.580Z,452
2022-08-22T01:47:19.714Z,451
2022-08-22T01:48:22.193Z,451
2022-08-22T01:49:35.700Z,450
2022-08-22T01:50:48.069Z,450
2022-08-22T01:51:51.236Z,452
2022-08-22T01:53:03.593Z,452
2022-08-22T01:54:16.724Z,452
2022-08-22T01:55:29.107Z,452
2022-08-22T01:56:32.337Z,453
2022-08-22T01:57:44.746Z,454
2022-08-22T01:58:57.736Z,453
2022-08-22T02:00:02.448Z,456
2022-08-22T02:01:15.747Z,456
2022-08-22T02:02:28.236Z,458
2022-08-22T02:03:31.706Z,455
2022-08-22T02:04:44.144Z,458
2022-08-22T02:05:57.239Z,456
2022-08-22T02:07:09.651Z,456
2022-08-22T02:08:12.746Z,458
2022-08-22T02:09:25.168Z,459
2022-08-22T02:10:38.220Z,459
2022-08-22T02:11:40.722Z,460
2022-08-22T02:12:53.737Z,461
2022-08-22T02:14:07.761Z,460
2022-08-22T02:15:20.708Z,460
2022-08-22T02:16:23.166Z,460
2022-08-22T02:17:36.228Z,460
2022-08-22T02:18:48.665Z,462
2022-08-22T02:19:52.017Z,460
2022-08-22T02:21:05.060Z,460
2022-08-22T02:22:18.581Z,461
2022-08-22T02:23:40.910Z,461
2022-08-22T02:24:34.571Z,459
2022-08-22T02:25:46.932Z,459
2022-08-22T02:27:00.225Z,459
2022-08-22T02:28:02.748Z,459
2022-08-22T02:29:15.744Z,459
2022-08-22T02:30:28.130Z,459
2022-08-22T02:31:41.216Z,461
2022-08-22T02:32:43.738Z,459
2022-08-22T02:33:56.744Z,458
2022-08-22T02:35:09.180Z,458
2022-08-22T02:36:12.744Z,460
2022-08-22T02:37:25.149Z,460
2022-08-22T02:38:38.357Z,457
2022-08-22T02:39:50.815Z,459
2022-08-22T02:40:54.242Z,460
2022-08-22T02:42:06.642Z,459
2022-08-22T02:43:19.733Z,460
2022-08-22T02:44:22.220Z,462
2022-08-22T02:45:35.253Z,460
2022-08-22T02:46:47.626Z,458
2022-08-22T02:48:00.726Z,457
2022-08-22T02:49:03.296Z,455
2022-08-22T02:50:16.236Z,455
2022-08-22T02:51:29.997Z,456
2022-08-22T02:52:33.324Z,454
2022-08-22T02:53:45.769Z,452
2022-08-22T02:55:18.722Z,451
2022-08-22T02:56:11.319Z,450
2022-08-22T02:57:14.188Z,447
2022-08-22T02:58:27.719Z,448
2022-08-22T02:59:59.888Z,448
2022-08-22T03:00:43.548Z,447
2022-08-22T03:01:56.212Z,452
2022-08-22T03:04:36.367Z,453
2022-08-22T03:05:29.003Z,453
2022-08-22T03:06:42.232Z,453
2022-08-22T03:07:44.785Z,453
2022-08-22T03:08:58.516Z,453
2022-08-22T03:10:10.881Z,451
2022-08-22T03:11:14.195Z,452
2022-08-22T03:12:26.585Z,453
2022-08-22T03:13:49.685Z,453
2022-08-22T03:14:52.137Z,451
2022-08-22T03:15:55.215Z,453
2022-08-22T03:17:07.684Z,452
2022-08-22T03:18:20.664Z,452
2022-08-22T03:19:33.063Z,454
2022-08-22T03:20:36.277Z,455
2022-08-22T03:21:48.672Z,453
2022-08-22T03:23:01.677Z,451
2022-08-22T03:24:04.153Z,450
2022-08-22T03:25:17.191Z,451
2022-08-22T03:26:29.628Z,449
2022-08-22T03:27:42.686Z,448
2022-08-22T03:28:58.933Z,447
2022-08-22T03:30:03.686Z,445
2022-08-22T03:31:06.173Z,445
2022-08-22T03:32:19.185Z,446
2022-08-22T03:33:31.649Z,446
2022-08-22T03:34:44.712Z,448
2022-08-22T03:35:47.200Z,449
2022-08-22T03:37:00.192Z,449
2022-08-22T03:38:12.599Z,451
2022-08-22T03:39:17.330Z,454
2022-08-22T03:40:31.622Z,454
2022-08-22T03:41:45.183Z,453
2022-08-22T03:42:47.657Z,454
2022-08-22T03:44:02.202Z,455
2022-08-22T03:45:14.626Z,455
2022-08-22T03:46:18.562Z,456
2022-08-22T03:47:31.134Z,454
2022-08-22T03:48:44.193Z,455
2022-08-22T03:49:46.674Z,455
2022-08-22T03:50:59.689Z,454
2022-08-22T03:52:12.112Z,456
2022-08-22T03:53:25.229Z,458
2022-08-22T03:54:30.510Z,458
2022-08-22T03:55:43.750Z,459
2022-08-22T03:56:46.256Z,458
2022-08-22T03:57:59.853Z,460
2022-08-22T03:59:12.531Z,460
2022-08-22T04:00:25.733Z,459
2022-08-22T04:01:28.331Z,461
2022-08-22T04:02:44.133Z,479
2022-08-22T04:03:46.911Z,513
2022-08-22T04:05:00.211Z,582
2022-08-22T04:06:13.085Z,727
2022-08-22T04:07:31.431Z,812
2022-08-22T04:08:34.848Z,793
2022-08-22T04:09:38.199Z,766
2022-08-22T04:10:50.893Z,774
2022-08-22T04:12:04.222Z,782
2022-08-22T04:13:06.821Z,778
2022-08-22T04:14:20.230Z,771
2022-08-22T04:15:32.635Z,765
2022-08-22T04:16:45.722Z,758
2022-08-22T04:17:48.250Z,751
2022-08-22T04:19:11.222Z,778
2022-08-22T04:20:13.675Z,806
2022-08-22T04:21:20.233Z,837
2022-08-22T04:22:32.627Z,848
2022-08-22T04:23:45.728Z,786
2022-08-22T04:24:52.020Z,721
2022-08-22T04:26:12.159Z,667
2022-08-22T04:27:15.311Z,620
2022-08-22T04:28:18.697Z,598
2022-08-22T04:29:31.090Z,588
2022-08-22T04:30:44.193Z,580
2022-08-22T04:31:56.582Z,578
2022-08-22T04:32:59.727Z,569
2022-08-22T04:34:21.801Z,560
2022-08-22T04:35:25.229Z,548
2022-08-22T04:36:27.637Z,534
2022-08-22T04:37:40.718Z,527
2022-08-22T04:38:53.033Z,519
2022-08-22T04:40:06.266Z,516
2022-08-22T04:41:08.856Z,512
2022-08-22T04:42:32.878Z,506
2022-08-22T04:43:35.777Z,503
2022-08-22T04:44:38.765Z,499
2022-08-22T04:45:50.913Z,495
2022-08-22T04:47:03.722Z,495
2022-08-22T04:48:15.931Z,491
2022-08-22T04:49:19.209Z,493
2022-08-22T04:50:31.452Z,491
2022-08-22T04:51:44.232Z,488
2022-08-22T04:52:56.430Z,489
2022-08-22T04:53:59.724Z,495
2022-08-22T04:55:11.923Z,501
2022-08-22T04:56:24.710Z,507
2022-08-22T04:57:36.835Z,506
2022-08-22T04:58:39.705Z,507
2022-08-22T04:59:51.828Z,511
2022-08-22T05:01:05.215Z,513
2022-08-22T05:02:07.581Z,513
2022-08-22T05:03:20.748Z,512
2022-08-22T05:04:32.902Z,517
2022-08-22T05:05:45.706Z,517
2022-08-22T05:06:47.975Z,516
2022-08-22T05:08:00.901Z,515
2022-08-22T05:09:16.158Z,509
2022-08-22T05:10:19.239Z,503
2022-08-22T05:11:31.386Z,500
2022-08-22T05:12:44.258Z,499
2022-08-22T05:13:46.547Z,496
2022-08-22T05:14:59.249Z,499
2022-08-22T05:16:13.502Z,495
2022-08-22T05:17:26.319Z,496
2022-08-22T05:18:29.840Z,496
2022-08-22T05:19:43.238Z,497
2022-08-22T05:20:55.383Z,497
2022-08-22T05:21:58.253Z,500
2022-08-22T05:23:16.963Z,500
2022-08-22T05:24:20.743Z,499
2022-08-22T05:25:32.876Z,498
2022-08-22T05:26:37.742Z,501
2022-08-22T05:27:49.864Z,502
2022-08-22T05:28:56.235Z,500
2022-08-22T05:30:08.311Z,499
2022-08-22T05:31:23.966Z,498
2022-08-22T05:32:26.384Z,499
2022-08-22T05:33:39.252Z,498
2022-08-22T05:34:51.686Z,495
2022-08-22T05:36:04.753Z,495
2022-08-22T05:37:08.188Z,490
2022-08-22T05:38:21.225Z,487
2022-08-22T05:39:33.322Z,484
2022-08-22T05:40:36.228Z,483
2022-08-22T05:41:50.087Z,489
2022-08-22T05:43:03.248Z,489
2022-08-22T05:44:05.435Z,488
2022-08-22T05:45:18.265Z,486
2022-08-22T05:46:30.386Z,483
2022-08-22T05:47:43.251Z,483
2022-08-22T05:48:45.532Z,481
2022-08-22T05:49:58.250Z,479
2022-08-22T05:51:10.357Z,477
2022-08-22T05:52:23.249Z,475
2022-08-22T05:53:27.206Z,477
2022-08-22T05:54:40.224Z,478
2022-08-22T05:55:42.506Z,482
2022-08-22T05:56:55.242Z,485
2022-08-22T05:58:07.303Z,482
2022-08-22T05:59:20.263Z,484
2022-08-22T06:00:22.449Z,483
2022-08-22T06:01:35.299Z,483
2022-08-22T06:02:47.372Z,485
2022-08-22T06:04:00.235Z,488
2022-08-22T06:05:02.491Z,487
2022-08-22T06:06:15.441Z,485
2022-08-22T06:07:29.077Z,482
2022-08-22T06:08:52.023Z,482
2022-08-22T06:09:44.444Z,482
2022-08-22T06:10:57.226Z,481
2022-08-22T06:12:11.678Z,478
2022-08-22T06:13:24.679Z,479
2022-08-22T06:14:37.634Z,479
2022-08-22T06:15:33.258Z,477
2022-08-22T06:16:47.689Z,474
2022-08-22T06:17:51.746Z,472
2022-08-22T06:19:03.856Z,471
2022-08-22T06:20:12.249Z,475
2022-08-22T06:21:24.337Z,476
2022-08-22T06:22:37.239Z,476
2022-08-22T06:23:49.337Z,478
2022-08-22T06:24:52.223Z,478
2022-08-22T06:26:04.268Z,478
2022-08-22T06:27:17.283Z,478
2022-08-22T06:28:19.581Z,478
2022-08-22T06:29:32.232Z,480
2022-08-22T06:30:44.273Z,480
2022-08-22T06:31:57.275Z,477
2022-08-22T06:33:01.037Z,473
2022-08-22T06:34:14.258Z,473
2022-08-22T06:35:26.358Z,472
2022-08-22T06:36:29.226Z,471
2022-08-22T06:37:41.325Z,470
2022-08-22T06:38:54.275Z,467
2022-08-22T06:40:06.489Z,466
2022-08-22T06:41:09.743Z,466
2022-08-22T06:42:21.847Z,465
2022-08-22T06:43:35.046Z,464
2022-08-22T06:44:47.090Z,462
2022-08-22T06:45:50.317Z,462
2022-08-22T06:47:02.423Z,459
2022-08-22T06:48:15.284Z,458
2022-08-22T06:49:17.468Z,456
2022-08-22T06:50:30.271Z,457
2022-08-22T06:51:42.466Z,456
2022-08-22T06:52:55.307Z,453
2022-08-22T06:53:57.995Z,452
2022-08-22T06:55:10.780Z,453
2022-08-22T06:56:22.887Z,453
2022-08-22T06:57:36.263Z,452
2022-08-22T06:58:38.460Z,449
2022-08-22T06:59:51.264Z,448
2022-08-22T07:01:11.219Z,447
2022-08-22T07:02:15.285Z,447
2022-08-22T07:03:18.622Z,448
2022-08-22T07:04:31.287Z,446
2022-08-22T07:05:43.490Z,445
2022-08-22T07:06:46.796Z,442
2022-08-22T07:07:59.056Z,442
2022-08-22T07:09:12.278Z,443
2022-08-22T07:10:24.392Z,442
2022-08-22T07:11:37.278Z,439
2022-08-22T07:12:39.529Z,441
2022-08-22T07:13:52.263Z,441
2022-08-22T07:14:54.434Z,442
2022-08-22T07:16:07.277Z,443
2022-08-22T07:17:19.364Z,441
2022-08-22T07:18:32.257Z,439
2022-08-22T07:19:34.481Z,439
2022-08-22T07:20:47.280Z,437
2022-08-22T07:21:59.871Z,437
2022-08-22T07:23:12.810Z,437
2022-08-22T07:24:15.096Z,437
2022-08-22T07:25:27.766Z,436
2022-08-22T07:26:39.929Z,440
2022-08-22T07:27:52.814Z,442
2022-08-22T07:28:58.532Z,442
2022-08-22T07:30:13.050Z,442
2022-08-22T07:31:15.596Z,442
2022-08-22T07:32:30.763Z,439
2022-08-22T07:33:33.029Z,439
2022-08-22T07:34:45.794Z,437
2022-08-22T07:35:57.838Z,435
2022-08-22T07:37:10.827Z,435
2022-08-22T07:38:14.129Z,435
2022-08-22T07:39:26.764Z,433
2022-08-22T07:40:39.625Z,435
2022-08-22T07:41:42.786Z,435
2022-08-22T07:42:54.933Z,433
2022-08-22T07:44:07.789Z,432
2022-08-22T07:45:10.061Z,434
2022-08-22T07:46:22.857Z,434
2022-08-22T07:47:49.218Z,433
2022-08-22T07:49:05.945Z,434
2022-08-22T07:49:51.074Z,438
2022-08-22T07:51:03.185Z,439
2022-08-22T07:52:16.285Z,439
2022-08-22T07:53:28.363Z,440
2022-08-22T07:54:31.781Z,440
2022-08-22T07:58:00.239Z,442
2022-08-22T07:58:03.988Z,442
2022-08-22T07:59:16.418Z,444
2022-08-22T08:00:19.361Z,444
2022-08-22T08:01:31.443Z,442
2022-08-22T08:02:44.353Z,443
2022-08-22T08:03:56.434Z,444
2022-08-22T08:04:59.363Z,442
2022-08-22T08:06:31.077Z,439
2022-08-22T08:07:24.408Z,438
2022-08-22T08:08:46.145Z,439
2022-08-22T08:09:39.365Z,441
2022-08-22T08:10:51.686Z,439
2022-08-22T08:12:04.406Z,439
2022-08-22T08:13:06.649Z,438
2022-08-22T08:14:19.405Z,439
2022-08-22T08:15:31.499Z,441
2022-08-22T08:17:03.879Z,442
2022-08-22T08:17:46.323Z,441
2022-08-22T08:19:28.908Z,439
2022-08-22T08:20:11.410Z,438
2022-08-22T08:21:13.533Z,438
2022-08-22T08:22:26.367Z,437
2022-08-22T08:23:39.678Z,436
2022-08-22T08:24:52.899Z,436
2022-08-22T08:25:55.298Z,437
2022-08-22T08:27:08.379Z,437
2022-08-22T08:28:20.466Z,435
2022-08-22T08:29:24.876Z,436
2022-08-22T08:30:36.941Z,434
2022-08-22T08:31:49.909Z,433
2022-08-22T08:32:52.135Z,433
2022-08-22T08:34:10.384Z,434
2022-08-22T08:35:12.607Z,435
2022-08-22T08:36:25.391Z,435
2022-08-22T08:37:37.469Z,435
2022-08-22T08:39:09.913Z,435
2022-08-22T08:39:52.376Z,437
2022-08-22T08:41:04.506Z,436
2022-08-22T08:42:17.359Z,434
2022-08-22T08:43:29.417Z,436
2022-08-22T08:44:32.360Z,432
2022-08-22T08:45:44.459Z,427
2022-08-22T08:46:57.453Z,427
2022-08-22T08:47:59.702Z,427
2022-08-22T08:49:12.870Z,424
2022-08-22T08:50:24.708Z,424
2022-08-22T08:51:37.421Z,426
2022-08-22T08:52:39.568Z,426
2022-08-22T08:53:52.413Z,429
2022-08-22T08:55:19.714Z,429
2022-08-22T08:56:17.805Z,429
2022-08-22T08:57:22.986Z,430
2022-08-22T08:58:35.884Z,429
2022-08-22T08:59:44.788Z,428
2022-08-22T09:00:48.995Z,428
2022-08-22T09:02:01.257Z,428
2022-08-22T09:03:15.446Z,425
2022-08-22T09:04:18.830Z,427
2022-08-22T09:05:31.928Z,427
2022-08-22T09:06:43.997Z,425
2022-08-22T09:07:46.422Z,423
2022-08-22T09:09:00.087Z,423
2022-08-22T09:10:12.894Z,420
2022-08-22T09:11:15.359Z,421
2022-08-22T09:12:28.895Z,418
2022-08-22T09:13:41.053Z,417
2022-08-22T09:14:53.940Z,416
2022-08-22T09:16:04.397Z,414
2022-08-22T09:17:07.882Z,411
2022-08-22T09:18:19.872Z,411
2022-08-22T09:19:23.430Z,413
2022-08-22T09:20:35.603Z,413
2022-08-22T09:21:49.411Z,414
2022-08-22T09:23:01.387Z,413
2022-08-22T09:24:04.901Z,416
2022-08-22T09:25:17.087Z,416
2022-08-22T09:26:29.887Z,416
2022-08-22T09:27:32.011Z,416
2022-08-22T09:28:44.927Z,415
2022-08-22T09:29:59.783Z,417
2022-08-22T09:31:02.886Z,416
2022-08-22T09:32:19.233Z,419
2022-08-22T09:33:31.900Z,416
2022-08-22T09:34:34.095Z,415
2022-08-22T09:35:46.897Z,416
2022-08-22T09:36:51.503Z,417
2022-08-22T09:38:14.405Z,419
2022-08-22T09:39:16.747Z,419
2022-08-22T09:40:24.765Z,417
2022-08-22T09:41:37.008Z,417
2022-08-22T09:42:39.909Z,418
2022-08-22T09:43:57.020Z,418
2022-08-22T09:45:01.912Z,415
2022-08-22T09:46:14.972Z,414
2022-08-22T09:47:17.947Z,412
2022-08-22T09:48:26.954Z,414
2022-08-22T09:49:39.901Z,415
2022-08-22T09:50:52.700Z,416
2022-08-22T09:52:05.140Z,415
2022-08-22T09:53:06.997Z,417
2022-08-22T09:54:20.007Z,419
2022-08-22T09:55:35.185Z,421
2022-08-22T09:56:38.928Z,421
2022-08-22T09:57:52.607Z,419
2022-08-22T09:58:56.417Z,419
2022-08-22T10:00:09.399Z,420
2022-08-22T10:01:22.464Z,421
2022-08-22T10:02:24.603Z,423
2022-08-22T10:03:37.913Z,423
2022-08-22T10:04:50.144Z,422
2022-08-22T10:06:02.928Z,426
2022-08-22T10:07:27.311Z,426
2022-08-22T10:08:20.415Z,429
2022-08-22T10:09:31.207Z,427
2022-08-22T10:10:34.434Z,428
2022-08-22T10:11:46.366Z,425
2022-08-22T10:13:00.018Z,426
2022-08-22T10:14:02.704Z,430
2022-08-22T10:15:15.446Z,428
2022-08-22T10:16:29.030Z,428
2022-08-22T10:17:31.920Z,426
2022-08-22T10:18:53.256Z,428
2022-08-22T10:19:58.454Z,427
2022-08-22T10:21:00.530Z,427
2022-08-22T10:22:13.439Z,428
2022-08-22T10:23:25.683Z,426
2022-08-22T10:24:44.031Z,426
2022-08-22T10:25:46.385Z,425
2022-08-22T10:26:49.576Z,424
2022-08-22T10:28:01.600Z,421
2022-08-22T10:29:14.407Z,421
2022-08-22T10:31:06.605Z,419
2022-08-22T10:31:31.929Z,416
2022-08-22T10:32:43.990Z,416
2022-08-22T10:34:07.926Z,414
2022-08-22T10:35:00.347Z,412
2022-08-22T10:36:13.922Z,414
2022-08-22T10:37:15.977Z,413
2022-08-22T10:38:28.968Z,413
2022-08-22T10:39:40.920Z,415
2022-08-22T10:40:46.921Z,414
2022-08-22T10:41:59.707Z,414
2022-08-22T10:43:12.424Z,413
2022-08-22T10:44:14.658Z,410
2022-08-22T10:45:46.928Z,410
2022-08-22T10:47:57.844Z,410
2022-08-22T10:49:46.604Z,412
2022-08-22T10:50:33.587Z,412
2022-08-22T10:51:16.936Z,410
2022-08-22T10:52:29.583Z,410
2022-08-22T10:54:20.717Z,412
2022-08-22T10:54:44.070Z,411
2022-08-22T10:55:56.917Z,412
2022-08-22T10:57:09.642Z,414
2022-08-22T10:58:11.646Z,413
2022-08-22T10:59:53.622Z,413
2022-08-22T11:00:36.179Z,412
2022-08-22T11:02:28.099Z,412
2022-08-22T11:02:53.328Z,411
2022-08-22T11:04:05.695Z,410
2022-08-22T11:05:28.124Z,411
2022-08-22T11:06:20.373Z,410
2022-08-22T11:07:33.098Z,410
2022-08-22T11:08:46.533Z,409
2022-08-22T11:09:49.153Z,409
2022-08-22T11:11:02.683Z,408
2022-08-22T11:12:16.636Z,410
2022-08-22T11:13:19.193Z,411
2022-08-22T11:14:31.621Z,407
2022-08-22T11:16:12.814Z,410
2022-08-22T11:16:46.124Z,411
2022-08-22T11:17:57.943Z,409
2022-08-22T11:19:14.944Z,408
2022-08-22T11:20:19.531Z,407
2022-08-22T11:21:32.768Z,409
2022-08-22T11:22:34.894Z,412
2022-08-22T11:23:47.601Z,418
2022-08-22T11:25:03.697Z,415
2022-08-22T11:26:07.131Z,417
2022-08-22T11:27:20.844Z,418
2022-08-22T11:29:13.156Z,419
2022-08-22T11:29:37.054Z,419
2022-08-22T11:30:50.366Z,420
2022-08-22T11:31:53.361Z,423
2022-08-22T11:33:05.422Z,422
2022-08-22T11:34:20.556Z,421
2022-08-22T11:35:22.690Z,424
2022-08-22T11:36:35.353Z,423
2022-08-22T11:37:47.263Z,425
2022-08-22T11:39:13.811Z,426
2022-08-22T11:40:00.907Z,425
2022-08-22T11:41:12.720Z,425
2022-08-22T11:42:25.388Z,427
2022-08-22T11:43:32.531Z,427
2022-08-22T11:44:50.228Z,430
2022-08-22T11:45:53.103Z,433
2022-08-22T11:47:05.859Z,432
2022-08-22T11:48:09.741Z,433
2022-08-22T11:49:25.787Z,433
2022-08-22T11:51:55.664Z,431
2022-08-22T11:52:51.960Z,432
2022-08-22T11:54:04.755Z,433
2022-08-22T11:55:36.038Z,435
2022-08-22T11:56:19.231Z,439
2022-08-22T11:57:31.212Z,442
2022-08-22T11:58:43.724Z,444
2022-08-22T11:59:45.629Z,445
2022-08-22T12:01:00.798Z,447
2022-08-22T12:02:04.181Z,448
2022-08-22T12:03:16.708Z,449
2022-08-22T12:04:29.008Z,450
2022-08-22T12:05:33.214Z,450
2022-08-22T12:06:44.969Z,451
2022-08-22T12:07:59.213Z,451
2022-08-22T12:09:01.114Z,452
2022-08-22T12:10:15.253Z,452
2022-08-22T12:11:26.968Z,452
2022-08-22T12:12:39.216Z,451
2022-08-22T12:13:45.777Z,452
2022-08-22T12:14:58.198Z,450
2022-08-22T12:16:00.123Z,449
2022-08-22T12:17:21.237Z,451
2022-08-22T12:18:23.967Z,451
2022-08-22T12:19:42.108Z,449
2022-08-22T12:20:45.837Z,449
2022-08-22T12:21:49.621Z,448
2022-08-22T12:23:02.543Z,448
2022-08-22T12:24:19.383Z,447
2022-08-22T12:25:23.728Z,448
2022-08-22T12:26:25.617Z,447
2022-08-22T12:27:38.728Z,444
2022-08-22T12:28:46.809Z,442
2022-08-22T12:29:59.248Z,439
2022-08-22T12:31:11.148Z,439
2022-08-22T12:32:27.555Z,445
2022-08-22T12:33:29.888Z,443
2022-08-22T12:34:35.790Z,440
2022-08-22T12:35:47.679Z,439
2022-08-22T12:37:00.261Z,435
2022-08-22T12:38:02.154Z,434
2022-08-22T12:39:14.737Z,433
2022-08-22T12:40:27.269Z,434
2022-08-22T12:41:39.758Z,432
2022-08-22T12:42:48.498Z,433
2022-08-22T12:43:51.251Z,430
2022-08-22T12:45:03.599Z,432
2022-08-22T12:46:16.252Z,434
2022-08-22T12:47:28.822Z,434
2022-08-22T12:48:34.758Z,434
2022-08-22T12:49:52.361Z,434
2022-08-22T12:50:55.280Z,435
2022-08-22T12:52:06.929Z,435
2022-08-22T12:53:09.777Z,437
2022-08-22T12:54:22.186Z,437
2022-08-22T12:55:35.749Z,437
2022-08-22T12:58:03.715Z,437
2022-08-22T12:58:56.008Z,434
2022-08-22T13:00:08.554Z,430
2022-08-22T13:01:33.691Z,430
2022-08-22T13:02:27.534Z,430
2022-08-22T13:03:39.179Z,428
2022-08-22T13:04:51.568Z,427
2022-08-22T13:05:59.183Z,414
2022-08-22T13:07:13.070Z,410
2022-08-22T13:08:17.349Z,411
2022-08-22T13:09:30.673Z,408
2022-08-22T13:10:32.601Z,410
2022-08-22T13:11:45.041Z,409
2022-08-22T13:12:57.129Z,409
2022-08-22T13:14:09.546Z,409
2022-08-22T13:15:10.974Z,412
2022-08-22T13:16:23.570Z,413
2022-08-22T13:17:35.932Z,411
2022-08-22T13:18:53.584Z,411
2022-08-22T13:19:55.968Z,413
2022-08-22T13:20:59.057Z,413
2022-08-22T13:22:10.992Z,414
2022-08-22T13:23:23.565Z,415
2022-08-22T13:24:38.876Z,416
2022-08-22T13:25:42.045Z,420
2022-08-22T13:26:53.669Z,421
2022-08-22T13:28:06.226Z,421
2022-08-22T13:29:25.238Z,424
2022-08-22T13:30:19.035Z,427
2022-08-22T13:31:30.639Z,429
2022-08-22T13:32:44.264Z,427
2022-08-22T13:33:46.636Z,430
2022-08-22T13:34:59.082Z,431
2022-08-22T13:36:11.020Z,434
2022-08-22T13:37:13.578Z,431
2022-08-22T13:38:26.637Z,430
2022-08-22T13:39:39.133Z,430
2022-08-22T13:40:41.136Z,431
2022-08-22T13:41:54.071Z,440
2022-08-22T13:44:32.103Z,435
2022-08-22T13:45:24.138Z,431
2022-08-22T13:46:44.526Z,430
2022-08-22T13:47:40.499Z,428
2022-08-22T13:48:52.137Z,426
2022-08-22T13:50:06.055Z,424
2022-08-22T13:51:08.066Z,420
2022-08-22T13:52:29.712Z,414
2022-08-22T13:53:32.220Z,407
2022-08-22T13:54:44.547Z,406
2022-08-22T13:55:49.235Z,404
2022-08-22T13:57:02.038Z,404
2022-08-22T13:58:13.671Z,409
2022-08-22T13:59:34.251Z,409
2022-08-22T14:00:31.722Z,421
2022-08-22T14:01:34.741Z,427
2022-08-22T14:02:47.577Z,431
2022-08-22T14:03:59.556Z,432
2022-08-22T14:05:12.031Z,434
2022-08-22T14:06:32.497Z,433
2022-08-22T14:07:30.561Z,433
2022-08-22T14:08:32.316Z,434
2022-08-22T14:09:45.352Z,435
2022-08-22T14:10:52.253Z,435
2022-08-22T14:12:00.557Z,440
2022-08-22T14:13:12.219Z,442
2022-08-22T14:14:26.563Z,442
2022-08-22T14:15:45.509Z,440
2022-08-22T14:16:39.021Z,442
2022-08-22T14:17:50.655Z,442
2022-08-22T14:19:05.903Z,444
2022-08-22T14:20:08.331Z,444
2022-08-22T14:21:23.541Z,445
2022-08-22T14:22:35.701Z,442
2022-08-22T14:25:05.026Z,442
2022-08-22T14:25:59.491Z,442
2022-08-22T14:27:11.978Z,438
2022-08-22T14:28:16.354Z,436
2022-08-22T14:29:29.026Z,434
2022-08-22T14:30:43.684Z,431
2022-08-22T14:31:46.496Z,430
2022-08-22T14:32:58.154Z,430
2022-08-22T14:34:11.013Z,429
2022-08-22T14:35:34.204Z,432
2022-08-22T14:36:30.527Z,435
2022-08-22T14:37:42.183Z,436
2022-08-22T14:38:46.385Z,437
2022-08-22T14:39:58.257Z,438
2022-08-22T14:41:11.013Z,437
2022-08-22T14:42:12.818Z,437
2022-08-22T14:43:26.119Z,435
2022-08-22T14:44:37.873Z,435
2022-08-22T14:45:50.525Z,434
2022-08-22T14:46:52.443Z,436
2022-08-22T14:48:29.595Z,437
2022-08-22T14:49:14.144Z,435
2022-08-22T14:50:27.992Z,435
2022-08-22T14:51:30.482Z,434
2022-08-22T14:52:42.223Z,433
2022-08-22T14:53:54.546Z,434
2022-08-22T14:55:08.725Z,435
2022-08-22T14:56:11.516Z,434
2022-08-22T14:57:23.108Z,432
2022-08-22T14:58:35.510Z,430
2022-08-22T14:59:37.992Z,429
2022-08-22T15:00:50.519Z,429
2022-08-22T15:02:02.477Z,431
2022-08-22T15:03:15.013Z,428
2022-08-22T15:04:19.487Z,427
2022-08-22T15:05:37.997Z,425
2022-08-22T15:06:37.363Z,424
2022-08-22T15:07:50.010Z,424
2022-08-22T15:09:07.727Z,420
2022-08-22T15:10:11.900Z,420
2022-08-22T15:11:14.122Z,418
2022-08-22T15:12:26.987Z,416
2022-08-22T15:13:38.651Z,414
2022-08-22T15:14:52.422Z,413
2022-08-22T15:15:59.780Z,411
2022-08-22T15:17:07.528Z,409
2022-08-22T15:18:19.262Z,409
2022-08-22T15:19:22.000Z,409
2022-08-22T15:20:36.428Z,409
2022-08-22T15:21:48.009Z,410
2022-08-22T15:23:00.162Z,409
2022-08-22T15:24:03.558Z,409
2022-08-22T15:25:15.315Z,409
2022-08-22T15:26:28.185Z,408
2022-08-22T15:27:30.086Z,409
2022-08-22T15:28:52.875Z,410
2022-08-22T15:29:55.386Z,410
2022-08-22T15:31:08.027Z,409
2022-08-22T15:32:10.386Z,407
2022-08-22T15:33:26.529Z,406
2022-08-22T15:34:31.369Z,407
2022-08-22T15:35:45.035Z,405
2022-08-22T15:36:46.933Z,405
2022-08-22T15:37:59.550Z,404
2022-08-22T15:39:13.226Z,402
2022-08-22T15:40:16.558Z,401
2022-08-22T15:41:31.228Z,397
2022-08-22T15:42:39.018Z,398
2022-08-22T15:43:50.724Z,400
2022-08-22T15:45:03.526Z,399
2022-08-22T15:46:06.665Z,398
2022-08-22T15:47:25.574Z,397
2022-08-22T15:48:30.462Z,399
2022-08-22T15:49:33.045Z,398
2022-08-22T15:50:45.805Z,396
2022-08-22T15:51:58.535Z,395
2022-08-22T15:53:10.266Z,395
2022-08-22T15:54:16.216Z,393
2022-08-22T15:55:26.465Z,396
2022-08-22T15:56:39.068Z,396
2022-08-22T15:57:43.614Z,398
2022-08-22T15:58:56.064Z,398
2022-08-22T16:00:12.169Z,399
2022-08-22T16:01:19.692Z,397
2022-08-22T16:02:22.521Z,395
2022-08-22T16:03:35.537Z,394
2022-08-22T16:04:47.198Z,393
2022-08-22T16:05:55.026Z,395
2022-08-22T16:07:09.477Z,394